createdAt,value
2017-11-03T00:04:50.207Z,30.27
2017-11-03T00:09:52.099Z,34.03
2017-11-03T00:14:54.002Z,43.40
2017-11-03T00:19:55.910Z,34.10
2017-11-03T00:24:57.834Z,41.93
2017-11-03T00:29:59.756Z,32.30
2017-11-03T00:35:01.660Z,29.80
2017-11-03T00:40:03.575Z,40.10
2017-11-03T00:45:05.546Z,37.57
2017-11-03T00:50:07.451Z,36.13
2017-11-03T00:55:09.349Z,33.80
2017-11-03T01:00:11.467Z,31.10
2017-11-03T01:05:13.708Z,32.93
2017-11-03T01:10:15.633Z,33.77
2017-11-03T01:15:17.575Z,31.40
2017-11-03T01:20:19.460Z,30.30
2017-11-03T01:25:21.443Z,40.33
2017-11-03T01:30:24.124Z,35.37
2017-11-03T01:35:26.031Z,42.10
2017-11-03T01:40:27.955Z,63.00
2017-11-03T01:45:29.912Z,76.40
2017-11-03T01:50:31.854Z,68.17
2017-11-03T01:55:33.782Z,77.27
2017-11-03T02:00:37.849Z,77.80
2017-11-03T02:05:40.574Z,80.47
2017-11-03T02:10:42.566Z,103.17
2017-11-03T02:15:45.214Z,88.77
2017-11-03T02:20:47.267Z,96.00
2017-11-03T02:25:49.327Z,98.50
2017-11-03T02:30:51.309Z,118.97
2017-11-03T02:35:54.355Z,102.80
2017-11-03T02:40:56.402Z,104.43
2017-11-03T02:45:58.434Z,120.13
2017-11-03T02:51:01.133Z,64.03
2017-11-03T02:56:03.036Z,48.43
2017-11-03T03:01:04.995Z,52.03
2017-11-03T03:06:06.899Z,58.77
2017-11-03T03:11:08.896Z,55.80
2017-11-03T03:16:10.843Z,49.20
2017-11-03T03:21:12.836Z,52.60
2017-11-03T03:26:14.817Z,105.60
2017-11-03T03:31:16.790Z,107.37
2017-11-03T03:36:19.460Z,117.93
2017-11-03T03:41:21.507Z,133.57
2017-11-03T03:46:23.490Z,135.03
2017-11-03T03:51:25.571Z,128.10
2017-11-03T03:56:27.595Z,141.50
2017-11-03T04:01:29.497Z,138.13
2017-11-03T04:06:31.774Z,177.57
2017-11-03T04:11:33.667Z,230.57
2017-11-03T04:16:35.563Z,147.67
2017-11-03T04:21:38.212Z,192.23
2017-11-03T04:26:40.182Z,166.07
2017-11-03T04:31:42.903Z,238.80
2017-11-03T04:36:45.666Z,176.57
2017-11-03T04:41:49.598Z,126.60
2017-11-03T04:46:51.735Z,231.00
2017-11-03T04:51:53.890Z,118.60
2017-11-03T04:56:56.595Z,83.67
2017-11-03T05:01:58.519Z,85.53
2017-11-03T05:07:01.188Z,98.53
2017-11-03T05:12:03.127Z,81.90
2017-11-03T05:17:05.036Z,95.67
2017-11-03T05:22:07.703Z,85.80
2017-11-03T05:27:09.627Z,82.50
2017-11-03T05:32:11.546Z,81.93
2017-11-03T05:37:13.599Z,95.27
2017-11-03T05:42:15.619Z,82.33
2017-11-03T05:47:17.569Z,65.83
2017-11-03T05:52:19.626Z,70.03
2017-11-03T05:57:21.603Z,69.40
2017-11-03T06:02:24.409Z,69.10
2017-11-03T06:07:27.996Z,73.77
2017-11-03T06:12:30.143Z,57.97
2017-11-03T06:17:32.072Z,74.60
2017-11-03T06:22:34.720Z,79.23
2017-11-03T06:27:36.648Z,91.10
2017-11-03T06:32:38.558Z,82.30
2017-11-03T06:37:45.328Z,98.63
2017-11-03T06:42:51.579Z,87.77
2017-11-03T06:47:53.809Z,114.10
2017-11-03T06:52:57.174Z,103.73
2017-11-03T06:57:59.991Z,104.87
2017-11-03T07:03:01.900Z,128.67
2017-11-03T07:08:04.699Z,130.47
2017-11-03T07:13:08.340Z,140.77
2017-11-03T07:18:10.457Z,145.83
2017-11-03T07:23:13.099Z,144.50
2017-11-03T07:28:16.379Z,136.80
2017-11-03T07:33:19.056Z,126.40
2017-11-03T07:38:21.838Z,124.87
2017-11-03T07:43:23.787Z,113.37
2017-11-03T07:48:25.764Z,101.30
2017-11-03T07:53:28.404Z,102.03
2017-11-03T07:58:31.140Z,91.97
2017-11-03T08:03:35.294Z,105.10
2017-11-03T08:08:37.315Z,88.07
2017-11-03T08:13:43.004Z,79.57
2017-11-03T08:18:45.524Z,92.77
2017-11-03T08:23:50.220Z,79.93
2017-11-03T08:28:53.637Z,77.17
2017-11-03T08:33:56.423Z,69.63
2017-11-03T08:38:59.091Z,70.90
2017-11-03T08:44:01.333Z,65.67
2017-11-03T08:49:03.545Z,59.37
2017-11-03T08:54:05.921Z,62.40
2017-11-03T08:59:12.592Z,53.40
2017-11-03T09:04:14.770Z,61.77
2017-11-03T09:09:17.035Z,61.53
2017-11-03T09:14:22.210Z,50.80
2017-11-03T09:19:28.022Z,47.87
2017-11-03T09:24:32.003Z,44.70
2017-11-03T09:29:34.000Z,54.93
2017-11-03T09:34:36.204Z,53.73
2017-11-03T09:39:38.203Z,47.13
2017-11-03T09:44:40.208Z,50.37
2017-11-03T09:49:42.188Z,43.97
2017-11-03T09:54:44.140Z,44.00
2017-11-03T09:59:46.622Z,39.53
2017-11-03T10:04:50.294Z,33.73
2017-11-03T10:09:52.374Z,34.97
2017-11-03T10:14:54.346Z,29.47
2017-11-03T10:19:57.067Z,36.40
2017-11-03T10:25:00.131Z,31.97
2017-11-03T10:30:02.110Z,32.30
2017-11-03T10:35:04.755Z,29.83
2017-11-03T10:40:06.677Z,47.57
2017-11-03T10:45:08.679Z,24.70
2017-11-03T10:50:10.670Z,27.30
2017-11-03T10:55:12.631Z,33.47
2017-11-03T11:00:14.684Z,33.90
2017-11-03T11:05:16.717Z,31.43
2017-11-03T11:10:18.732Z,30.37
2017-11-03T11:15:20.695Z,37.23
2017-11-03T11:20:22.736Z,33.97
2017-11-03T11:25:24.682Z,41.50
2017-11-03T11:30:27.778Z,39.07
2017-11-03T11:35:29.803Z,36.97
2017-11-03T11:40:33.479Z,44.83
2017-11-03T11:45:35.910Z,33.80
2017-11-03T11:50:38.184Z,38.27
2017-11-03T11:55:40.271Z,32.07
2017-11-03T12:00:43.030Z,34.30
2017-11-03T12:05:45.074Z,36.10
2017-11-03T12:10:47.143Z,37.57
2017-11-03T12:15:49.874Z,32.10
2017-11-03T12:20:53.673Z,33.27
2017-11-03T12:25:55.668Z,34.57
2017-11-03T12:30:58.812Z,37.83
2017-11-03T12:36:00.979Z,41.93
2017-11-03T12:41:05.303Z,37.93
2017-11-03T12:46:08.718Z,41.63
2017-11-03T12:51:12.562Z,35.53
2017-11-03T12:56:14.626Z,41.40
2017-11-03T13:01:20.103Z,32.60
2017-11-03T13:06:26.146Z,41.33
2017-11-03T13:11:29.067Z,34.17
2017-11-03T13:16:31.087Z,44.57
2017-11-03T13:21:33.844Z,37.93
2017-11-03T13:26:35.943Z,41.20
2017-11-03T13:31:37.992Z,35.97
2017-11-03T13:36:40.094Z,37.90
2017-11-03T13:41:42.084Z,34.10
2017-11-03T13:46:44.223Z,37.10
2017-11-03T13:51:46.288Z,46.00
2017-11-03T13:56:49.354Z,44.13
2017-11-03T14:01:51.435Z,46.33
2017-11-03T14:06:53.474Z,49.40
2017-11-03T14:11:56.112Z,51.83
2017-11-03T14:16:59.636Z,60.40
2017-11-03T14:22:02.328Z,58.73
2017-11-03T14:27:05.059Z,59.77
2017-11-03T14:32:07.659Z,58.43
2017-11-03T14:37:09.568Z,68.40
2017-11-03T14:42:11.899Z,62.13
2017-11-03T14:47:13.801Z,53.20
2017-11-03T14:52:15.751Z,53.80
2017-11-03T14:57:18.486Z,53.00
2017-11-03T15:02:20.524Z,62.83
2017-11-03T15:07:22.420Z,62.73
2017-11-03T15:12:24.336Z,57.87
2017-11-03T15:17:26.385Z,65.30
2017-11-03T15:22:29.097Z,58.83
2017-11-03T15:27:31.895Z,60.23
2017-11-03T15:32:37.704Z,53.10
2017-11-03T15:37:39.841Z,67.23
2017-11-03T15:42:41.869Z,61.23
2017-11-03T15:47:43.830Z,57.13
2017-11-03T15:52:45.826Z,69.50
2017-11-03T15:57:47.824Z,61.03
2017-11-03T16:02:49.893Z,65.13
2017-11-03T16:07:51.797Z,71.70
2017-11-03T16:12:54.215Z,68.20
2017-11-03T16:17:56.102Z,61.53
2017-11-03T16:22:58.034Z,70.03
2017-11-03T16:27:59.937Z,70.43
2017-11-03T16:33:02.366Z,63.83
2017-11-03T16:38:04.929Z,66.13
2017-11-03T16:43:08.686Z,63.67
2017-11-03T16:48:11.483Z,58.80
2017-11-03T16:53:14.211Z,65.87
2017-11-03T16:58:16.611Z,63.73
2017-11-03T17:03:19.912Z,58.50
2017-11-03T17:08:22.240Z,58.33
2017-11-03T17:13:24.907Z,58.70
2017-11-03T17:18:27.598Z,62.17
2017-11-03T17:23:30.656Z,63.70
2017-11-03T17:28:33.197Z,73.87
2017-11-03T17:33:35.888Z,70.23
2017-11-03T17:38:37.808Z,57.17
2017-11-03T17:43:39.743Z,56.33
2017-11-03T17:48:41.701Z,62.83
2017-11-03T17:53:43.927Z,63.77
2017-11-03T17:58:47.752Z,63.30
2017-11-03T18:03:51.564Z,59.17
2017-11-03T18:08:53.613Z,60.93
2017-11-03T18:13:55.628Z,59.00
2017-11-03T18:18:57.563Z,60.80
2017-11-03T18:23:59.552Z,83.17
2017-11-03T18:29:01.528Z,57.00
2017-11-03T18:34:04.787Z,61.93
2017-11-03T18:39:06.811Z,60.03
2017-11-03T18:44:13.633Z,57.93
2017-11-03T18:49:18.265Z,52.83
2017-11-03T18:54:20.773Z,60.20
2017-11-03T18:59:24.590Z,56.90
2017-11-03T19:04:26.742Z,56.20
2017-11-03T19:09:28.655Z,53.40
2017-11-03T19:14:30.547Z,56.20
2017-11-03T19:19:32.745Z,57.40
2017-11-03T19:24:34.723Z,56.63
2017-11-03T19:29:41.485Z,59.43
2017-11-03T19:34:43.651Z,62.20
2017-11-03T19:39:46.669Z,94.10
2017-11-03T19:44:48.715Z,111.63
2017-11-03T19:49:50.842Z,67.97
2017-11-03T19:54:53.456Z,87.20
2017-11-03T19:59:55.654Z,109.90
2017-11-03T20:05:00.291Z,60.80
2017-11-03T20:10:03.068Z,66.67
2017-11-03T20:15:05.029Z,69.60
2017-11-03T20:20:07.700Z,65.03
2017-11-03T20:25:10.107Z,67.60
2017-11-03T20:30:12.037Z,63.70
2017-11-03T20:35:13.985Z,73.03
2017-11-03T20:40:15.945Z,67.80
2017-11-03T20:45:17.932Z,61.70
2017-11-03T20:50:19.883Z,67.70
2017-11-03T20:55:21.858Z,72.40
2017-11-03T21:00:28.740Z,70.03
2017-11-03T21:05:32.002Z,71.77
2017-11-03T21:10:39.423Z,68.87
2017-11-03T21:15:45.683Z,75.47
2017-11-03T21:20:49.420Z,72.90
2017-11-03T21:25:52.480Z,73.90
2017-11-03T21:30:55.298Z,88.13
2017-11-03T21:36:02.016Z,79.37
2017-11-03T21:41:08.043Z,70.17
2017-11-03T21:46:13.122Z,77.53
2017-11-03T21:51:15.835Z,76.47
2017-11-03T21:56:19.441Z,70.57
2017-11-03T22:01:23.218Z,72.60
2017-11-03T22:06:30.633Z,72.97
2017-11-03T22:11:32.990Z,76.43
2017-11-03T22:16:40.015Z,74.83
2017-11-03T22:21:43.185Z,78.80
2017-11-03T22:26:49.306Z,83.13
2017-11-03T22:31:53.484Z,80.10
2017-11-03T22:36:55.475Z,84.30
2017-11-03T22:41:58.431Z,88.07
2017-11-03T22:47:03.783Z,83.20
2017-11-03T22:52:11.636Z,82.83
2017-11-03T22:57:15.976Z,75.33
2017-11-03T23:02:21.549Z,80.87
2017-11-03T23:07:25.624Z,91.50
2017-11-03T23:12:32.519Z,88.70
2017-11-03T23:17:39.506Z,86.33
2017-11-03T23:22:42.509Z,80.33
2017-11-03T23:27:46.507Z,86.63
2017-11-03T23:32:52.220Z,82.20
2017-11-03T23:38:00.135Z,82.90
2017-11-03T23:43:05.626Z,89.80
2017-11-03T23:48:14.203Z,71.93
2017-11-03T23:53:17.320Z,79.00
2017-11-03T23:58:25.154Z,68.63
